createdAt,value
2019-03-24T00:00:46.836Z,5.20
2019-03-24T00:03:15.262Z,5.20
2019-03-24T00:05:44.019Z,5.20
2019-03-24T00:08:12.546Z,5.20
2019-03-24T00:10:41.007Z,5.10
2019-03-24T00:13:09.458Z,5.00
2019-03-24T00:15:37.902Z,5.00
2019-03-24T00:18:06.354Z,5.00
2019-03-24T00:20:34.802Z,4.90
2019-03-24T00:23:03.241Z,4.90
2019-03-24T00:25:31.697Z,4.80
2019-03-24T00:28:00.175Z,4.80
2019-03-24T00:30:28.636Z,4.70
2019-03-24T00:32:57.052Z,4.70
2019-03-24T00:35:25.501Z,4.70
2019-03-24T00:37:53.946Z,4.70
2019-03-24T00:40:22.387Z,4.70
2019-03-24T00:42:50.859Z,4.80
2019-03-24T00:45:19.607Z,4.70
2019-03-24T00:47:49.507Z,4.70
2019-03-24T00:50:18.187Z,4.60
2019-03-24T00:52:46.679Z,4.60
2019-03-24T00:55:15.174Z,4.60
2019-03-24T00:57:43.626Z,4.60
2019-03-24T01:00:13.470Z,4.60
2019-03-24T01:02:41.915Z,4.50
2019-03-24T01:05:10.408Z,4.40
2019-03-24T01:07:38.882Z,4.40
2019-03-24T01:10:08.192Z,4.40
2019-03-24T01:12:36.656Z,4.40
2019-03-24T01:15:06.991Z,4.30
2019-03-24T01:17:36.007Z,4.30
2019-03-24T01:20:05.987Z,4.20
2019-03-24T01:22:34.433Z,4.20
2019-03-24T01:25:02.895Z,4.10
2019-03-24T01:27:31.352Z,4.10
2019-03-24T01:30:00.312Z,4.00
2019-03-24T01:32:29.321Z,4.00
2019-03-24T01:34:57.743Z,4.00
2019-03-24T01:37:26.207Z,4.00
2019-03-24T01:39:54.658Z,4.00
2019-03-24T01:42:23.121Z,3.90
2019-03-24T01:44:51.563Z,3.90
2019-03-24T01:47:20.027Z,3.90
2019-03-24T01:49:48.479Z,3.80
2019-03-24T01:52:16.935Z,3.90
2019-03-24T01:54:45.753Z,3.90
2019-03-24T01:57:14.195Z,3.90
2019-03-24T01:59:42.647Z,3.90
2019-03-24T02:02:11.080Z,3.80
2019-03-24T02:04:39.872Z,3.70
2019-03-24T02:07:08.338Z,3.60
2019-03-24T02:09:36.763Z,3.70
2019-03-24T02:12:05.345Z,3.70
2019-03-24T02:14:33.807Z,3.60
2019-03-24T02:17:02.286Z,3.50
2019-03-24T02:19:30.739Z,3.40
2019-03-24T02:21:59.180Z,3.30
2019-03-24T02:24:27.640Z,3.30
2019-03-24T02:26:56.073Z,3.30
2019-03-24T02:29:24.560Z,3.20
2019-03-24T02:31:53.002Z,3.20
2019-03-24T02:34:21.542Z,3.20
2019-03-24T02:36:50.023Z,3.20
2019-03-24T02:39:18.482Z,3.20
2019-03-24T02:41:46.919Z,3.10
2019-03-24T02:44:15.775Z,3.10
2019-03-24T02:46:44.538Z,3.00
2019-03-24T02:49:13.006Z,3.00
2019-03-24T02:51:41.443Z,3.00
2019-03-24T02:54:10.226Z,2.90
2019-03-24T02:56:38.659Z,2.90
2019-03-24T02:59:07.125Z,2.80
2019-03-24T03:01:35.599Z,2.80
2019-03-24T03:04:04.058Z,2.80
2019-03-24T03:06:32.493Z,2.80
2019-03-24T03:09:00.958Z,2.90
2019-03-24T03:11:29.412Z,2.80
2019-03-24T03:13:57.867Z,2.80
2019-03-24T03:16:37.927Z,2.80
2019-03-24T03:18:56.510Z,2.80
2019-03-24T03:21:25.216Z,2.80
2019-03-24T03:23:53.679Z,2.70
2019-03-24T03:26:22.142Z,2.70
2019-03-24T03:28:50.585Z,2.70
2019-03-24T03:31:19.021Z,2.70
2019-03-24T03:33:47.485Z,2.70
2019-03-24T03:36:15.940Z,2.70
2019-03-24T03:38:44.392Z,2.70
2019-03-24T03:41:12.950Z,2.70
2019-03-24T03:43:42.025Z,2.70
2019-03-24T03:46:10.510Z,2.60
2019-03-24T03:48:38.986Z,2.40
2019-03-24T03:51:07.443Z,2.40
2019-03-24T03:53:35.908Z,2.30
2019-03-24T03:56:04.770Z,2.20
2019-03-24T03:58:33.243Z,2.20
2019-03-24T04:01:01.990Z,2.10
2019-03-24T04:03:30.467Z,2.10
2019-03-24T04:05:58.914Z,2.10
2019-03-24T04:08:27.366Z,2.10
2019-03-24T04:10:55.832Z,2.10
2019-03-24T04:13:24.657Z,2.10
2019-03-24T04:15:53.493Z,2.10
2019-03-24T04:18:21.931Z,2.10
2019-03-24T04:20:50.385Z,2.00
2019-03-24T04:23:18.833Z,1.90
2019-03-24T04:25:47.299Z,1.90
2019-03-24T04:28:15.750Z,1.90
2019-03-24T04:30:44.192Z,1.80
2019-03-24T04:33:12.669Z,1.80
2019-03-24T04:35:41.140Z,1.80
2019-03-24T04:38:09.574Z,1.90
2019-03-24T04:40:38.061Z,1.90
2019-03-24T04:43:06.509Z,1.90
2019-03-24T04:45:34.971Z,1.80
2019-03-24T04:48:03.398Z,1.80
2019-03-24T04:50:31.879Z,1.80
2019-03-24T04:53:00.376Z,1.70
2019-03-24T04:55:28.885Z,1.70
2019-03-24T04:57:57.365Z,1.60
2019-03-24T05:00:28.903Z,1.50
2019-03-24T05:02:57.346Z,1.50
2019-03-24T05:05:26.160Z,1.50
2019-03-24T05:07:54.935Z,1.50
2019-03-24T05:10:28.033Z,1.50
2019-03-24T05:12:56.702Z,1.50
2019-03-24T05:15:25.460Z,1.60
2019-03-24T05:17:53.982Z,1.60
2019-03-24T05:20:22.437Z,1.60
2019-03-24T05:22:50.883Z,1.60
2019-03-24T05:25:19.345Z,1.60
2019-03-24T05:27:47.804Z,1.60
2019-03-24T05:30:16.312Z,1.70
2019-03-24T05:32:44.759Z,1.60
2019-03-24T05:35:13.305Z,1.50
2019-03-24T05:37:41.739Z,1.40
2019-03-24T05:40:10.390Z,1.40
2019-03-24T05:42:38.838Z,1.30
2019-03-24T05:45:09.584Z,1.40
2019-03-24T05:47:38.026Z,1.30
2019-03-24T05:50:08.204Z,1.40
2019-03-24T05:52:36.667Z,1.40
2019-03-24T05:55:07.426Z,1.40
2019-03-24T05:57:35.890Z,1.50
2019-03-24T06:00:07.413Z,1.50
2019-03-24T06:02:35.868Z,1.60
2019-03-24T06:05:06.163Z,1.70
2019-03-24T06:07:34.590Z,1.80
2019-03-24T06:10:03.860Z,1.80
2019-03-24T06:12:32.335Z,2.00
2019-03-24T06:15:00.777Z,2.10
2019-03-24T06:17:29.250Z,2.20
2019-03-24T06:19:57.685Z,2.40
2019-03-24T06:22:26.144Z,2.60
2019-03-24T06:24:54.602Z,2.60
2019-03-24T06:27:23.056Z,2.70
2019-03-24T06:29:51.501Z,2.80
2019-03-24T06:32:19.947Z,2.90
2019-03-24T06:34:48.383Z,3.00
2019-03-24T06:37:16.830Z,3.10
2019-03-24T06:39:45.301Z,3.20
2019-03-24T06:42:13.775Z,3.30
2019-03-24T06:44:42.284Z,3.40
2019-03-24T06:47:11.022Z,3.50
2019-03-24T06:49:39.472Z,3.60
2019-03-24T06:52:15.067Z,3.70
2019-03-24T06:54:43.523Z,3.90
2019-03-24T06:57:12.008Z,4.00
2019-03-24T06:59:40.448Z,4.10
2019-03-24T07:02:08.956Z,4.20
2019-03-24T07:04:37.428Z,4.30
2019-03-24T07:07:05.866Z,4.40
2019-03-24T07:09:34.306Z,4.50
2019-03-24T07:12:03.095Z,4.60
2019-03-24T07:14:31.619Z,4.70
2019-03-24T07:17:00.080Z,4.90
2019-03-24T07:19:28.523Z,5.10
2019-03-24T07:21:56.999Z,5.30
2019-03-24T07:24:25.452Z,5.50
2019-03-24T07:26:53.968Z,5.70
2019-03-24T07:29:27.159Z,5.90
2019-03-24T07:35:24.414Z,6.40
2019-03-24T07:37:52.866Z,6.70
2019-03-24T07:40:21.319Z,6.90
2019-03-24T07:42:50.086Z,7.20
2019-03-24T07:45:18.615Z,7.40
2019-03-24T07:47:48.966Z,7.60
2019-03-24T07:50:17.205Z,7.80
2019-03-24T07:52:45.690Z,7.80
2019-03-24T07:55:14.118Z,7.90
2019-03-24T07:57:42.602Z,8.00
2019-03-24T08:00:12.178Z,8.30
2019-03-24T08:02:51.269Z,8.40
2019-03-24T08:05:19.721Z,8.50
2019-03-24T08:07:48.176Z,8.70
2019-03-24T08:10:16.594Z,8.90
2019-03-24T08:12:45.086Z,9.20
2019-03-24T08:15:13.635Z,9.60
2019-03-24T08:17:42.081Z,10.00
2019-03-24T08:20:12.306Z,10.30
2019-03-24T08:22:40.912Z,10.60
2019-03-24T08:25:09.350Z,10.70
2019-03-24T08:27:37.825Z,10.80
2019-03-24T08:30:08.078Z,11.00
2019-03-24T08:32:36.521Z,11.20
2019-03-24T08:35:06.192Z,11.30
2019-03-24T08:37:34.661Z,11.50
2019-03-24T08:40:04.212Z,11.70
2019-03-24T08:42:33.138Z,11.70
2019-03-24T08:45:01.566Z,11.80
2019-03-24T08:47:30.023Z,12.10
2019-03-24T08:49:58.462Z,12.40
2019-03-24T08:52:26.896Z,12.70
2019-03-24T08:54:55.634Z,12.80
2019-03-24T08:57:24.068Z,12.80
2019-03-24T08:59:52.506Z,13.10
2019-03-24T09:02:21.302Z,13.50
2019-03-24T09:04:49.720Z,13.60
2019-03-24T09:07:18.155Z,13.90
2019-03-24T09:09:46.572Z,14.30
2019-03-24T09:12:15.028Z,14.70
2019-03-24T09:14:43.473Z,15.10
2019-03-24T09:17:11.913Z,15.30
2019-03-24T09:19:40.370Z,15.20
2019-03-24T09:22:08.796Z,15.30
2019-03-24T09:24:37.249Z,15.70
2019-03-24T09:27:05.732Z,16.10
2019-03-24T09:29:34.230Z,16.40
2019-03-24T09:32:02.709Z,16.50
2019-03-24T09:34:31.141Z,16.30
2019-03-24T09:36:59.566Z,16.20
2019-03-24T09:39:28.021Z,16.30
2019-03-24T09:41:56.483Z,16.70
2019-03-24T09:44:24.949Z,16.90
2019-03-24T09:46:53.375Z,16.90
2019-03-24T09:49:21.979Z,16.80
2019-03-24T09:51:50.397Z,16.60
2019-03-24T09:54:18.850Z,16.20
2019-03-24T09:56:47.286Z,15.90
2019-03-24T09:59:15.716Z,15.80
2019-03-24T10:01:44.197Z,15.60
2019-03-24T10:04:12.699Z,15.80
2019-03-24T10:06:41.162Z,15.80
2019-03-24T10:09:09.616Z,15.40
2019-03-24T10:11:38.067Z,15.70
2019-03-24T10:14:06.545Z,15.80
2019-03-24T10:16:34.994Z,15.70
2019-03-24T10:19:13.313Z,15.30
2019-03-24T10:21:33.602Z,15.40
2019-03-24T10:24:02.080Z,15.80
2019-03-24T10:26:30.533Z,16.40
2019-03-24T10:28:59.009Z,16.30
2019-03-24T10:31:27.784Z,15.90
2019-03-24T10:33:56.562Z,15.80
2019-03-24T10:36:25.461Z,15.90
2019-03-24T10:38:56.686Z,15.80
2019-03-24T10:41:25.131Z,15.80
2019-03-24T10:43:53.901Z,16.30
2019-03-24T10:46:22.346Z,16.80
2019-03-24T10:48:50.867Z,17.70
2019-03-24T10:51:20.993Z,17.50
2019-03-24T10:53:49.444Z,17.30
2019-03-24T10:56:17.909Z,18.00
2019-03-24T10:58:46.371Z,18.70
2019-03-24T11:01:14.821Z,19.20
2019-03-24T11:03:43.268Z,19.10
2019-03-24T11:06:11.716Z,19.10
2019-03-24T11:08:40.156Z,19.50
2019-03-24T11:11:08.629Z,19.90
2019-03-24T11:13:37.060Z,20.00
2019-03-24T11:16:05.529Z,20.00
2019-03-24T11:18:34.005Z,20.40
2019-03-24T11:21:02.466Z,20.80
2019-03-24T11:23:31.278Z,20.90
2019-03-24T11:25:59.728Z,21.30
2019-03-24T11:28:28.166Z,21.50
2019-03-24T11:30:56.633Z,21.30
2019-03-24T11:33:25.084Z,21.20
2019-03-24T11:35:53.609Z,21.30
2019-03-24T11:38:22.148Z,21.50
2019-03-24T11:40:50.632Z,21.60
2019-03-24T11:43:19.080Z,21.00
2019-03-24T11:45:47.534Z,19.80
2019-03-24T11:48:15.979Z,19.00
2019-03-24T11:50:44.436Z,18.40
2019-03-24T11:53:12.888Z,18.00
2019-03-24T11:55:41.332Z,18.20
2019-03-24T11:58:09.799Z,18.90
2019-03-24T12:00:39.613Z,18.60
2019-03-24T12:03:08.054Z,18.70
2019-03-24T12:05:36.861Z,19.30
2019-03-24T12:08:05.751Z,19.80
2019-03-24T12:10:34.216Z,20.40
2019-03-24T12:13:02.922Z,21.10
2019-03-24T12:15:31.396Z,21.20
2019-03-24T12:18:00.196Z,19.90
2019-03-24T12:20:28.711Z,19.40
2019-03-24T12:22:57.144Z,19.40
2019-03-24T12:25:25.600Z,19.90
2019-03-24T12:27:54.053Z,19.20
2019-03-24T12:30:22.526Z,18.40
2019-03-24T12:32:50.988Z,18.50
2019-03-24T12:35:19.456Z,18.00
2019-03-24T12:37:49.061Z,17.40
2019-03-24T12:40:17.694Z,17.50
2019-03-24T12:42:46.127Z,17.40
2019-03-24T12:45:15.345Z,17.30
2019-03-24T12:47:43.780Z,16.80
2019-03-24T12:50:14.067Z,16.50
2019-03-24T12:52:42.499Z,16.40
2019-03-24T12:55:11.412Z,16.20
2019-03-24T12:57:39.924Z,16.20
2019-03-24T13:00:13.698Z,16.80
2019-03-24T13:02:42.137Z,17.10
2019-03-24T13:05:12.029Z,17.20
2019-03-24T13:07:40.474Z,17.30
2019-03-24T13:10:09.571Z,17.30
2019-03-24T13:12:38.016Z,17.70
2019-03-24T13:15:08.280Z,18.50
2019-03-24T13:17:36.731Z,19.10
2019-03-24T13:20:07.818Z,19.50
2019-03-24T13:22:36.605Z,20.20
2019-03-24T13:25:07.292Z,19.60
2019-03-24T13:27:35.782Z,18.80
2019-03-24T13:30:06.173Z,18.60
2019-03-24T13:32:34.628Z,19.30
2019-03-24T13:35:03.092Z,19.90
2019-03-24T13:37:31.571Z,20.50
2019-03-24T13:40:00.012Z,20.60
2019-03-24T13:42:28.481Z,20.60
2019-03-24T13:44:56.966Z,20.70
2019-03-24T13:47:25.432Z,20.10
2019-03-24T13:49:53.903Z,20.80
2019-03-24T13:52:22.368Z,21.70
2019-03-24T13:54:50.817Z,22.90
2019-03-24T13:57:19.270Z,24.20
2019-03-24T13:59:47.709Z,25.30
2019-03-24T14:02:16.163Z,25.70
2019-03-24T14:04:44.601Z,24.40
2019-03-24T14:07:13.063Z,23.20
2019-03-24T14:09:41.510Z,22.00
2019-03-24T14:12:09.984Z,22.00
2019-03-24T14:14:38.450Z,23.00
2019-03-24T14:17:06.931Z,23.90
2019-03-24T14:19:35.668Z,24.50
2019-03-24T14:22:04.395Z,25.30
2019-03-24T14:24:33.299Z,25.90
2019-03-24T14:27:01.949Z,25.70
2019-03-24T14:29:30.389Z,26.00
2019-03-24T14:31:58.888Z,26.30
2019-03-24T14:34:27.355Z,26.50
2019-03-24T14:36:55.829Z,25.70
2019-03-24T14:39:24.282Z,24.50
2019-03-24T14:41:52.730Z,23.30
2019-03-24T14:44:21.176Z,21.90
2019-03-24T14:46:49.620Z,20.60
2019-03-24T14:49:18.056Z,19.90
2019-03-24T14:51:46.497Z,18.60
2019-03-24T14:54:15.191Z,17.30
2019-03-24T14:56:43.986Z,16.70
2019-03-24T14:59:13.039Z,16.30
2019-03-24T15:01:41.587Z,16.30
2019-03-24T15:04:10.066Z,16.40
2019-03-24T15:06:38.489Z,16.60
2019-03-24T15:09:07.704Z,16.70
2019-03-24T15:11:36.516Z,16.90
2019-03-24T15:14:05.488Z,17.00
2019-03-24T15:16:33.947Z,17.40
2019-03-24T15:19:02.417Z,17.60
2019-03-24T15:21:30.989Z,17.60
2019-03-24T15:23:59.425Z,17.90
2019-03-24T15:26:27.887Z,18.00
2019-03-24T15:28:56.349Z,17.70
2019-03-24T15:31:24.784Z,17.60
2019-03-24T15:33:53.245Z,17.50
2019-03-24T15:36:22.108Z,17.30
2019-03-24T15:38:50.559Z,16.90
2019-03-24T15:41:19.118Z,16.40
2019-03-24T15:43:48.300Z,16.10
2019-03-24T15:46:16.802Z,15.90
2019-03-24T15:48:45.388Z,15.90
2019-03-24T15:51:17.210Z,16.00
2019-03-24T15:53:44.865Z,16.00
2019-03-24T15:56:13.481Z,16.00
2019-03-24T15:58:41.974Z,16.20
2019-03-24T16:01:10.506Z,16.40
2019-03-24T16:03:39.001Z,16.50
2019-03-24T16:06:07.494Z,16.50
2019-03-24T16:08:35.944Z,16.40
2019-03-24T16:11:04.551Z,16.40
2019-03-24T16:13:33.023Z,16.20
2019-03-24T16:16:01.480Z,16.20
2019-03-24T16:18:29.953Z,16.20
2019-03-24T16:20:58.385Z,16.00
2019-03-24T16:23:26.870Z,15.90
2019-03-24T16:25:55.835Z,15.80
2019-03-24T16:28:24.442Z,15.90
2019-03-24T16:30:52.865Z,15.90
2019-03-24T16:33:21.338Z,15.70
2019-03-24T16:35:49.800Z,15.60
2019-03-24T16:38:18.261Z,15.50
2019-03-24T16:40:47.103Z,15.40
2019-03-24T16:43:15.537Z,15.40
2019-03-24T16:45:47.137Z,15.30
2019-03-24T16:48:15.204Z,15.40
2019-03-24T16:50:43.661Z,15.50
2019-03-24T16:53:18.550Z,15.80
2019-03-24T16:55:47.294Z,16.00
2019-03-24T16:58:15.767Z,15.90
2019-03-24T17:00:44.207Z,15.70
2019-03-24T17:03:12.644Z,15.40
2019-03-24T17:05:41.098Z,15.00
2019-03-24T17:08:09.532Z,14.80
2019-03-24T17:10:38.005Z,14.60
2019-03-24T17:13:06.454Z,14.40
2019-03-24T17:15:35.217Z,14.10
2019-03-24T17:18:04.245Z,13.90
2019-03-24T17:20:32.706Z,13.70
2019-03-24T17:23:01.133Z,13.60
2019-03-24T17:25:29.623Z,13.50
2019-03-24T17:27:58.040Z,13.40
2019-03-24T17:30:27.790Z,13.40
2019-03-24T17:32:56.241Z,13.30
2019-03-24T17:35:25.111Z,13.20
2019-03-24T17:37:53.849Z,13.00
2019-03-24T17:40:22.312Z,12.90
2019-03-24T17:42:50.781Z,12.80
2019-03-24T17:45:20.141Z,12.70
2019-03-24T17:47:48.604Z,12.60
2019-03-24T17:50:17.681Z,12.60
2019-03-24T17:52:46.117Z,12.50
2019-03-24T17:55:15.688Z,12.50
2019-03-24T17:57:44.139Z,12.50
2019-03-24T18:00:16.525Z,12.50
2019-03-24T18:02:44.978Z,12.50
2019-03-24T18:05:14.950Z,12.50
2019-03-24T18:07:43.555Z,12.40
2019-03-24T18:10:14.108Z,12.40
2019-03-24T18:12:42.509Z,12.30
2019-03-24T18:15:11.673Z,12.40
2019-03-24T18:17:40.419Z,12.30
2019-03-24T18:20:11.022Z,12.20
2019-03-24T18:22:39.454Z,12.20
2019-03-24T18:25:08.734Z,12.20
2019-03-24T18:27:37.148Z,12.20
2019-03-24T18:30:10.118Z,12.20
2019-03-24T18:32:38.911Z,12.20
2019-03-24T18:35:09.663Z,12.10
2019-03-24T18:37:38.121Z,12.10
2019-03-24T18:40:08.639Z,12.00
2019-03-24T18:42:37.832Z,12.00
2019-03-24T18:45:11.784Z,12.00
2019-03-24T18:47:40.213Z,11.90
2019-03-24T18:50:10.096Z,11.90
2019-03-24T18:52:38.817Z,11.90
2019-03-24T18:55:08.780Z,11.90
2019-03-24T18:57:37.842Z,11.80
2019-03-24T19:00:11.227Z,11.80
2019-03-24T19:02:39.657Z,11.80
2019-03-24T19:05:08.933Z,11.70
2019-03-24T19:07:37.969Z,11.70
2019-03-24T19:10:08.745Z,11.60
2019-03-24T19:12:38.640Z,11.50
2019-03-24T19:15:09.014Z,11.40
2019-03-24T19:17:37.480Z,11.30
2019-03-24T19:20:07.783Z,11.40
2019-03-24T19:22:36.749Z,11.30
2019-03-24T19:25:09.013Z,11.30
2019-03-24T19:27:37.451Z,11.20
2019-03-24T19:30:14.764Z,11.20
2019-03-24T19:32:44.208Z,11.20
2019-03-24T19:35:13.697Z,11.10
2019-03-24T19:37:45.240Z,11.10
2019-03-24T19:40:30.082Z,11.00
2019-03-24T19:42:58.595Z,11.00
2019-03-24T19:45:27.093Z,10.90
2019-03-24T19:47:56.455Z,10.80
2019-03-24T19:50:25.520Z,10.80
2019-03-24T19:52:53.980Z,10.80
2019-03-24T19:55:22.414Z,10.80
2019-03-24T19:57:50.874Z,10.70
2019-03-24T20:00:19.310Z,10.70
2019-03-24T20:02:47.819Z,10.70
2019-03-24T20:05:16.268Z,10.70
2019-03-24T20:07:48.122Z,10.70
2019-03-24T20:10:15.013Z,10.60
2019-03-24T20:12:43.468Z,10.50
2019-03-24T20:15:12.172Z,10.50
2019-03-24T20:17:40.703Z,10.50
2019-03-24T20:20:09.911Z,10.50
2019-03-24T20:22:38.363Z,10.50
2019-03-24T20:25:08.446Z,10.50
2019-03-24T20:27:36.913Z,10.50
2019-03-24T20:30:08.446Z,10.60
2019-03-24T20:32:37.076Z,10.60
2019-03-24T20:35:07.701Z,10.50
2019-03-24T20:37:36.485Z,10.50
2019-03-24T20:40:06.361Z,10.50
2019-03-24T20:42:34.854Z,10.50
2019-03-24T20:45:11.218Z,10.50
2019-03-24T20:47:41.238Z,10.50
2019-03-24T20:50:10.201Z,10.50
2019-03-24T20:52:40.237Z,10.40
2019-03-24T20:55:09.620Z,10.40
2019-03-24T20:57:38.102Z,10.40
2019-03-24T21:00:10.000Z,10.40
2019-03-24T21:02:38.558Z,10.40
2019-03-24T21:05:07.152Z,10.40
2019-03-24T21:07:37.632Z,10.30
2019-03-24T21:10:07.641Z,10.30
2019-03-24T21:12:36.470Z,10.30
2019-03-24T21:15:11.506Z,10.30
2019-03-24T21:17:39.727Z,10.20
2019-03-24T21:20:08.206Z,10.20
2019-03-24T21:22:36.690Z,10.20
2019-03-24T21:25:06.275Z,10.20
2019-03-24T21:27:34.772Z,10.20
2019-03-24T21:30:04.483Z,10.20
2019-03-24T21:32:32.988Z,10.10
2019-03-24T21:35:01.442Z,10.10
2019-03-24T21:37:32.813Z,10.10
2019-03-24T21:40:01.284Z,10.10
2019-03-24T21:43:06.664Z,10.20
2019-03-24T21:45:35.251Z,10.10
2019-03-24T21:48:03.782Z,10.10
2019-03-24T21:50:32.214Z,10.10
2019-03-24T21:53:00.662Z,10.10
2019-03-24T21:55:29.115Z,10.10
2019-03-24T21:57:58.053Z,10.00
2019-03-24T22:00:32.213Z,10.00
2019-03-24T22:03:02.243Z,10.00
2019-03-24T22:05:30.709Z,9.90
2019-03-24T22:07:59.236Z,9.90
2019-03-24T22:10:27.715Z,9.90
2019-03-24T22:12:56.159Z,9.90
2019-03-24T22:15:24.602Z,9.90
2019-03-24T22:17:53.531Z,9.90
2019-03-24T22:20:21.969Z,9.90
2019-03-24T22:22:50.422Z,9.90
2019-03-24T22:25:18.877Z,9.80
2019-03-24T22:27:47.636Z,9.80
2019-03-24T22:30:16.457Z,9.80
2019-03-24T22:32:44.985Z,9.80
2019-03-24T22:35:13.899Z,9.80
2019-03-24T22:37:42.350Z,9.70
2019-03-24T22:40:11.358Z,9.60
2019-03-24T22:42:39.827Z,9.60
2019-03-24T22:45:08.406Z,9.60
2019-03-24T22:47:36.867Z,9.60
2019-03-24T22:50:07.529Z,9.60
2019-03-24T22:52:36.041Z,9.60
2019-03-24T22:55:06.828Z,9.60
2019-03-24T22:57:35.254Z,9.60
2019-03-24T23:00:06.847Z,9.60
2019-03-24T23:02:35.286Z,9.60
2019-03-24T23:05:04.601Z,9.60
2019-03-24T23:07:33.097Z,9.60
2019-03-24T23:10:01.571Z,9.60
2019-03-24T23:12:30.003Z,9.60
2019-03-24T23:14:58.491Z,9.60
2019-03-24T23:17:27.987Z,9.70
2019-03-24T23:19:56.482Z,9.60
2019-03-24T23:22:24.948Z,9.60
2019-03-24T23:24:53.407Z,9.60
2019-03-24T23:27:21.872Z,9.50
2019-03-24T23:29:50.327Z,9.50
2019-03-24T23:32:18.785Z,9.50
2019-03-24T23:34:47.243Z,9.50
2019-03-24T23:37:15.680Z,9.40
2019-03-24T23:39:44.499Z,9.40
2019-03-24T23:42:12.948Z,9.30
2019-03-24T23:44:41.394Z,9.20
2019-03-24T23:47:10.154Z,9.20
2019-03-24T23:49:38.628Z,9.20
2019-03-24T23:52:07.112Z,9.10
2019-03-24T23:54:35.573Z,9.10
2019-03-24T23:57:04.025Z,9.00
2019-03-24T23:59:43.463Z,9.00
